Hardwood, Louisiana
Current Conditions -  °F | °C
As of 9:15 PM on Monday 20 Oct 2014 (Local Time) from KHZR Reporting Station
Clear Clear  
Wind Chill: 60°   Ceiling: Unl
Heat Index: 60°   Visibility: 10mi
Dew Point: 56°   Wind: 0mph
Humidity: 87%   Direction: NA
Pressure: 30.03"   Gusts: NA
Location:  30.8804°N, 91.4243°W
Report Text: KHZR 210215Z AUTO 00000KT 10SM CLR 16/14 A3003 RMK AO2 T01560135
Loading
Personal Weather Stations






























Interactive Weather Map New forecast layout! Learn more

10-Day Weather Forecast

Advertisements
Track Severe Weather on mobile